Time;durP1;ratioP1;P1;durP2;ratioP2;P2;SDS_P1;SDS_P2;PMS_P1;PMS_P2;Temp;Humidity;BMP_temperature;BMP_pressure;BME280_temperature;BME280_humidity;BME280_pressure;Samples;Min_cycle;Max_cycle;Signal;HPM_P1;HPM_P2
2022/12/26 00:01:29;;;;;;;6.93;6.33;;;11.40;99.90;;;;;;5094014;28;20183;-70
2022/12/26 00:03:55;;;;;;;7.63;6.93;;;11.30;99.90;;;;;;5093896;28;20627;-69
2022/12/26 00:06:25;;;;;;;8.17;7.47;;;11.40;99.90;;;;;;5093912;28;20180;-69
2022/12/26 00:08:54;;;;;;;7.30;6.67;;;11.40;99.90;;;;;;5093404;28;20172;-69
2022/12/26 00:11:26;;;;;;;7.27;6.67;;;11.30;99.90;;;;;;5093677;28;20184;-70
2022/12/26 00:13:54;;;;;;;8.33;7.63;;;11.30;99.90;;;;;;5093667;28;20172;-70
2022/12/26 00:16:20;;;;;;;8.73;7.83;;;11.40;99.90;;;;;;5093863;28;20244;-70
2022/12/26 00:18:49;;;;;;;8.63;7.93;;;11.40;99.90;;;;;;5093428;28;20225;-70
2022/12/26 00:21:16;;;;;;;8.93;8.10;;;11.40;99.90;;;;;;5093426;28;20176;-70
2022/12/26 00:23:42;;;;;;;9.30;8.40;;;11.40;99.90;;;;;;5093135;28;20183;-70
2022/12/26 00:26:11;;;;;;;9.50;8.60;;;11.30;99.90;;;;;;5093279;28;20646;-69
2022/12/26 00:28:37;;;;;;;8.90;8.00;;;11.30;99.90;;;;;;5093640;28;20252;-69
2022/12/26 00:31:08;;;;;;;9.53;8.63;;;11.40;99.90;;;;;;5092107;28;20182;-69
2022/12/26 00:33:35;;;;;;;9.63;8.57;;;11.40;99.90;;;;;;5093274;28;20229;-70
2022/12/26 00:36:06;;;;;;;9.40;8.33;;;11.40;99.90;;;;;;5093344;28;20176;-71
2022/12/26 00:38:33;;;;;;;9.20;8.40;;;11.30;99.90;;;;;;5092317;28;20262;-70
2022/12/26 00:40:59;;;;;;;9.10;8.20;;;11.30;99.90;;;;;;5093419;28;20289;-70
2022/12/26 00:43:25;;;;;;;8.97;8.17;;;11.30;99.90;;;;;;5093181;28;20207;-69
2022/12/26 00:45:50;;;;;;;9.27;8.33;;;11.20;99.90;;;;;;5093169;28;20191;-69
2022/12/26 00:48:16;;;;;;;8.63;7.83;;;11.30;99.90;;;;;;5093226;28;20168;-70
2022/12/26 00:50:42;;;;;;;8.07;7.40;;;11.30;99.90;;;;;;5093452;28;20168;-70
2022/12/26 00:53:07;;;;;;;8.30;7.60;;;11.20;99.90;;;;;;5092857;28;20686;-70
2022/12/26 00:55:33;;;;;;;7.93;7.33;;;11.20;99.90;;;;;;5093169;28;20525;-70
2022/12/26 00:57:58;;;;;;;8.17;7.47;;;11.20;99.90;;;;;;5092884;28;20168;-70
2022/12/26 01:00:24;;;;;;;7.97;7.27;;;11.20;99.90;;;;;;5093527;28;20242;-70
2022/12/26 01:02:50;;;;;;;8.27;7.57;;;11.10;99.90;;;;;;5097254;28;20182;-70
2022/12/26 01:05:16;;;;;;;8.30;7.60;;;11.20;99.90;;;;;;5097131;28;20180;-70
2022/12/26 01:07:44;;;;;;;8.33;7.63;;;11.30;99.90;;;;;;5095469;28;20172;-69
2022/12/26 01:10:11;;;;;;;7.93;7.23;;;11.30;99.90;;;;;;5097318;28;20334;-69
2022/12/26 01:12:38;;;;;;;9.63;8.73;;;11.30;99.90;;;;;;5097115;28;20222;-69
2022/12/26 01:15:05;;;;;;;9.87;8.87;;;11.30;99.90;;;;;;5097023;28;20203;-69
2022/12/26 01:17:37;;;;;;;11.33;10.23;;;11.30;99.90;;;;;;5096906;28;20227;-69
2022/12/26 01:20:04;;;;;;;10.50;9.40;;;11.40;99.90;;;;;;5096793;28;20210;-70
2022/12/26 01:22:29;;;;;;;13.67;10.43;;;11.40;99.90;;;;;;5096409;28;20172;-71
2022/12/26 01:24:56;;;;;;;19.50;14.50;;;11.40;99.90;;;;;;5096709;28;20244;-68
2022/12/26 01:27:24;;;;;;;18.87;14.57;;;11.40;99.90;;;;;;5096780;28;20168;-70
2022/12/26 01:29:50;;;;;;;19.63;15.40;;;11.30;99.90;;;;;;5095561;28;20172;-70
2022/12/26 01:32:16;;;;;;;20.90;15.60;;;11.30;99.90;;;;;;5096579;28;20227;-69
2022/12/26 01:34:41;;;;;;;20.93;14.70;;;11.30;99.90;;;;;;5096580;28;20668;-69
2022/12/26 01:37:07;;;;;;;21.47;15.77;;;11.30;99.90;;;;;;5096237;28;20199;-69
2022/12/26 01:39:35;;;;;;;20.87;15.17;;;11.20;99.90;;;;;;5094954;28;20223;-69
2022/12/26 01:42:01;;;;;;;17.73;14.67;;;11.20;99.90;;;;;;5096674;28;20184;-69
2022/12/26 01:44:57;;;;;;;19.00;15.03;;;11.20;99.90;;;;;;5096473;28;20250;-70
2022/12/26 01:47:39;;;;;;;17.27;13.27;;;11.20;99.90;;;;;;5096259;28;20179;-69
2022/12/26 01:50:11;;;;;;;15.63;13.20;;;11.10;99.90;;;;;;5096354;28;20665;-69
2022/12/26 01:52:43;;;;;;;17.70;13.17;;;11.10;99.90;;;;;;5096057;28;20168;-69
2022/12/26 01:55:12;;;;;;;14.20;11.57;;;11.00;99.90;;;;;;5095043;28;20263;-70
2022/12/26 01:57:43;;;;;;;12.87;10.93;;;11.00;99.90;;;;;;5096134;28;20206;-70
2022/12/26 02:00:10;;;;;;;12.20;10.90;;;11.10;99.90;;;;;;5096063;28;20207;-69
2022/12/26 02:05:32;;;;;;;13.23;11.07;;;11.10;99.90;;;;;;5096116;28;20183;-69
2022/12/26 02:05:36;;;;;;;11.80;9.47;;;11.10;99.90;;;;;;5095683;28;20537;-69
2022/12/26 02:08:10;;;;;;;10.57;9.43;;;11.10;99.90;;;;;;5094794;28;20170;-69
2022/12/26 02:10:49;;;;;;;10.13;9.03;;;11.10;99.90;;;;;;5095951;28;20163;-69
2022/12/26 02:13:18;;;;;;;9.03;8.13;;;11.10;99.90;;;;;;5095601;28;20168;-70
2022/12/26 02:15:44;;;;;;;9.17;8.17;;;11.10;99.90;;;;;;5095712;28;20175;-69
2022/12/26 02:18:10;;;;;;;8.33;7.43;;;11.10;99.90;;;;;;5095759;28;20176;-69
2022/12/26 02:20:59;;;;;;;8.27;7.53;;;11.10;99.90;;;;;;5095405;28;20257;-69
2022/12/26 02:23:53;;;;;;;7.87;6.90;;;11.10;99.90;;;;;;5013962;28;20194;-69
2022/12/26 02:26:43;;;;;;;6.53;6.03;;;10.90;99.90;;;;;;5041174;28;20270;-70
2022/12/26 02:29:49;;;;;;;6.90;6.30;;;10.90;99.90;;;;;;5095707;28;20164;-69
2022/12/26 02:32:52;;;;;;;6.53;5.90;;;10.80;99.90;;;;;;5095483;28;20246;-69
2022/12/26 02:35:24;;;;;;;6.57;5.77;;;10.80;99.90;;;;;;5094988;28;20711;-69
2022/12/26 02:38:05;;;;;;;5.87;5.37;;;10.80;99.90;;;;;;5095628;28;20189;-70
2022/12/26 02:40:45;;;;;;;5.80;5.30;;;10.80;99.90;;;;;;5095186;28;20224;-70
2022/12/26 02:43:22;;;;;;;6.07;5.67;;;10.70;99.90;;;;;;5094279;28;20172;-69
2022/12/26 02:49:05;;;;;;;4.80;4.40;;;10.70;99.90;;;;;;5095275;28;20183;-70
2022/12/26 03:17:18;;;;;;;3.67;3.37;;;10.50;99.90;;;;;;5035275;28;20191;-70
2022/12/26 03:18:23;;;;;;;3.80;3.50;;;10.50;99.90;;;;;;5094309;28;20175;-70
2022/12/26 03:20:50;;;;;;;3.43;3.23;;;10.50;99.90;;;;;;5094594;28;20265;-70
2022/12/26 03:23:17;;;;;;;3.30;3.10;;;10.50;99.90;;;;;;5093691;28;20261;-69
2022/12/26 03:28:48;;;;;;;3.80;3.50;;;10.50;99.90;;;;;;5094568;28;20531;-70
2022/12/26 03:31:14;;;;;;;4.37;4.07;;;10.60;99.90;;;;;;5094640;28;20168;-70
2022/12/26 03:37:11;;;;;;;5.50;5.00;;;10.60;99.90;;;;;;5094481;28;20592;-70
2022/12/26 04:44:38;;;;;;;4.33;3.90;;;10.80;99.90;;;;;;5092965;28;20171;-70
2022/12/26 04:47:03;;;;;;;4.10;3.80;;;10.70;99.90;;;;;;5093200;28;20168;-70
2022/12/26 04:52:14;;;;;;;3.90;3.50;;;10.70;99.90;;;;;;5092885;28;20202;-70
2022/12/26 04:54:40;;;;;;;3.73;3.53;;;10.70;99.90;;;;;;5093113;28;20233;-70
2022/12/26 04:57:06;;;;;;;3.90;3.50;;;10.70;99.90;;;;;;5092612;28;20187;-70
2022/12/26 04:59:32;;;;;;;3.70;3.40;;;10.70;99.90;;;;;;5092574;28;20199;-70
2022/12/26 05:10:21;;;;;;;2.90;2.70;;;10.80;99.90;;;;;;5093017;28;20583;-70
2022/12/26 05:12:47;;;;;;;3.20;3.00;;;10.80;99.90;;;;;;5092636;28;20173;-70
2022/12/26 05:15:13;;;;;;;3.00;2.80;;;10.70;99.90;;;;;;5092603;28;20222;-69
2022/12/26 05:29:02;;;;;;;3.40;2.60;;;10.90;99.90;;;;;;5092704;28;20179;-70
2022/12/26 05:31:28;;;;;;;2.70;2.50;;;11.00;99.90;;;;;;5092535;28;20171;-70
2022/12/26 05:34:07;;;;;;;2.40;2.30;;;11.00;99.90;;;;;;5092667;28;20170;-70
2022/12/26 05:36:45;;;;;;;3.23;2.83;;;11.10;99.90;;;;;;5092377;28;20653;-70
2022/12/26 05:39:11;;;;;;;2.80;2.60;;;11.10;99.90;;;;;;5091902;28;20675;-70
2022/12/26 05:41:37;;;;;;;4.73;2.53;;;11.10;99.90;;;;;;5092563;28;20187;-70
2022/12/26 05:44:06;;;;;;;3.63;2.40;;;11.10;99.90;;;;;;5092361;28;20172;-70
2022/12/26 05:46:33;;;;;;;2.93;2.63;;;11.10;99.90;;;;;;5092699;28;20595;-69
2022/12/26 05:48:58;;;;;;;2.60;2.40;;;11.20;99.90;;;;;;5095820;28;20268;-71
2022/12/26 05:51:24;;;;;;;2.50;2.30;;;11.20;99.90;;;;;;5095730;28;20254;-70
2022/12/26 05:53:51;;;;;;;3.10;2.90;;;11.30;99.90;;;;;;5096163;28;20183;-72
2022/12/26 05:56:17;;;;;;;2.80;2.30;;;11.30;99.90;;;;;;5096170;28;20191;-70
2022/12/26 05:58:43;;;;;;;2.60;2.43;;;11.30;99.90;;;;;;5095576;28;20604;-70
2022/12/26 06:01:19;;;;;;;2.67;2.30;;;11.30;99.90;;;;;;5095856;28;20478;-69
2022/12/26 06:03:50;;;;;;;2.43;2.33;;;11.30;99.90;;;;;;5095645;28;20225;-70
2022/12/26 06:06:17;;;;;;;3.20;2.10;;;11.30;99.90;;;;;;5095590;28;20168;-71
2022/12/26 06:08:43;;;;;;;2.17;2.07;;;11.30;99.90;;;;;;5095778;28;20221;-72
2022/12/26 06:11:11;;;;;;;2.13;1.93;;;11.30;99.90;;;;;;5095747;28;20176;-69
2022/12/26 06:13:37;;;;;;;2.97;1.90;;;11.30;99.90;;;;;;5095621;28;20202;-71
2022/12/26 06:16:12;;;;;;;2.27;1.83;;;11.30;99.90;;;;;;5095701;28;20164;-71
2022/12/26 06:18:37;;;;;;;1.60;1.50;;;11.40;99.90;;;;;;5095308;28;20176;-69
2022/12/26 06:21:09;;;;;;;2.17;1.70;;;11.30;99.90;;;;;;5095158;28;20214;-70
2022/12/26 06:23:35;;;;;;;1.93;1.80;;;11.30;99.90;;;;;;5095253;28;20184;-70
2022/12/26 06:26:01;;;;;;;1.87;1.60;;;11.30;99.90;;;;;;5094745;28;20174;-70
2022/12/26 06:28:27;;;;;;;1.90;1.80;;;11.20;99.90;;;;;;5094787;28;20176;-70
2022/12/26 06:30:53;;;;;;;1.60;1.50;;;11.20;99.90;;;;;;5095251;28;20172;-70
2022/12/26 06:33:19;;;;;;;1.77;1.63;;;11.20;99.90;;;;;;5094882;28;20600;-70
2022/12/26 06:35:45;;;;;;;2.17;2.07;;;11.10;99.90;;;;;;5095161;28;20168;-71
2022/12/26 06:38:11;;;;;;;1.60;1.50;;;11.20;99.90;;;;;;5095454;28;20186;-71
2022/12/26 06:40:41;;;;;;;2.20;1.73;;;11.20;99.90;;;;;;5094020;28;20706;-70
2022/12/26 06:43:07;;;;;;;3.40;3.20;;;11.20;99.90;;;;;;5094924;28;20222;-70
2022/12/26 06:45:33;;;;;;;3.00;2.30;;;11.10;99.90;;;;;;5094249;28;20189;-71
2022/12/26 06:47:59;;;;;;;5.07;3.93;;;11.10;99.90;;;;;;5094443;28;20171;-71
2022/12/26 06:50:25;;;;;;;1.80;1.70;;;11.20;99.90;;;;;;5094759;28;20175;-71
2022/12/26 06:52:51;;;;;;;2.03;1.70;;;11.20;99.90;;;;;;5093015;28;20168;-70
2022/12/26 06:55:17;;;;;;;1.37;1.33;;;11.10;99.90;;;;;;5094088;28;20578;-71
2022/12/26 06:57:42;;;;;;;1.40;1.30;;;11.10;99.90;;;;;;5094414;28;20595;-71
2022/12/26 07:00:09;;;;;;;1.57;1.47;;;11.10;99.90;;;;;;5093595;28;20203;-72
2022/12/26 07:02:34;;;;;;;2.73;1.60;;;11.10;99.90;;;;;;5094076;28;20163;-71
2022/12/26 07:05:00;;;;;;;3.10;1.67;;;11.10;99.90;;;;;;5094317;28;20176;-72
2022/12/26 07:07:26;;;;;;;1.70;1.60;;;11.10;99.90;;;;;;5094759;28;20172;-70
2022/12/26 07:09:52;;;;;;;4.03;1.43;;;11.10;99.90;;;;;;5093836;28;20654;-71
2022/12/26 07:12:20;;;;;;;3.33;1.53;;;11.10;99.90;;;;;;5094148;28;20175;-70
2022/12/26 07:14:46;;;;;;;1.83;1.70;;;11.00;99.90;;;;;;5094530;28;20187;-71
2022/12/26 07:17:12;;;;;;;5.17;1.50;;;11.00;99.90;;;;;;5094450;28;20172;-71
2022/12/26 07:19:37;;;;;;;1.33;1.20;;;11.10;99.90;;;;;;5093607;28;20214;-71
2022/12/26 07:22:03;;;;;;;2.03;1.50;;;11.10;99.90;;;;;;5093240;28;20172;-71
2022/12/26 07:24:29;;;;;;;3.23;1.60;;;11.10;99.90;;;;;;5093826;28;20245;-71
2022/12/26 07:26:54;;;;;;;2.30;1.40;;;11.00;99.90;;;;;;5092274;28;20172;-70
2022/12/26 07:29:21;;;;;;;1.30;1.20;;;11.00;99.90;;;;;;5093594;28;20168;-70
2022/12/26 07:31:47;;;;;;;1.70;1.27;;;11.00;99.90;;;;;;5093832;28;20183;-70
2022/12/26 07:34:13;;;;;;;2.07;1.40;;;10.90;99.90;;;;;;5093806;28;20176;-70
2022/12/26 07:36:39;;;;;;;1.20;0.97;;;10.90;99.90;;;;;;5093613;28;20634;-71
2022/12/26 07:39:05;;;;;;;2.90;1.37;;;10.90;99.90;;;;;;5093299;28;20232;-70
2022/12/26 07:44:15;;;;;;;2.43;1.50;;;10.80;99.90;;;;;;5094061;28;20217;-71
2022/12/26 07:46:42;;;;;;;5.37;1.40;;;10.80;99.90;;;;;;5093544;28;20173;-69
2022/12/26 07:49:11;;;;;;;5.03;1.40;;;10.80;99.90;;;;;;5093636;28;20175;-70
2022/12/26 07:51:36;;;;;;;2.97;1.40;;;10.80;99.90;;;;;;5093173;28;20216;-70
2022/12/26 07:54:02;;;;;;;2.40;1.33;;;10.80;99.90;;;;;;5092410;28;20627;-71
2022/12/26 07:56:27;;;;;;;4.17;1.37;;;10.90;99.90;;;;;;5093400;28;20184;-70
2022/12/26 07:58:53;;;;;;;2.73;1.40;;;10.90;99.90;;;;;;5093397;28;20167;-71
2022/12/26 08:01:19;;;;;;;3.00;1.40;;;10.80;99.90;;;;;;5093711;28;20179;-71
2022/12/26 08:03:47;;;;;;;2.37;1.50;;;10.80;99.90;;;;;;5093079;28;20178;-70
2022/12/26 08:06:12;;;;;;;3.50;1.70;;;10.80;99.90;;;;;;5093238;28;20168;-70
2022/12/26 08:08:38;;;;;;;2.60;1.50;;;10.80;99.90;;;;;;5093031;28;20164;-70
2022/12/26 08:11:06;;;;;;;3.20;1.77;;;10.80;99.90;;;;;;5092236;28;20229;-70
2022/12/26 08:13:32;;;;;;;4.20;1.70;;;10.80;99.90;;;;;;5093052;28;20187;-69
2022/12/26 08:15:59;;;;;;;2.40;1.47;;;10.90;99.90;;;;;;5093110;28;20179;-70
2022/12/26 08:18:25;;;;;;;5.83;1.47;;;10.90;99.90;;;;;;5092782;28;20255;-70
2022/12/26 08:20:51;;;;;;;3.20;1.57;;;10.90;99.90;;;;;;5093424;28;20299;-70
2022/12/26 08:23:17;;;;;;;3.07;1.70;;;10.90;99.90;;;;;;5092211;28;20652;-70
2022/12/26 08:25:42;;;;;;;4.73;1.60;;;10.90;99.90;;;;;;5092862;28;20183;-71
2022/12/26 08:28:08;;;;;;;3.17;1.40;;;10.90;99.90;;;;;;5092950;28;20182;-69
2022/12/26 08:30:34;;;;;;;3.07;1.50;;;11.00;99.90;;;;;;5092735;28;20203;-70
2022/12/26 08:32:59;;;;;;;5.33;1.50;;;11.10;99.90;;;;;;5091485;28;20168;-70
2022/12/26 08:35:25;;;;;;;1.40;1.30;;;11.10;99.90;;;;;;5092699;28;20707;-71
2022/12/26 08:37:51;;;;;;;3.40;1.60;;;11.10;99.90;;;;;;5092752;28;20175;-70
2022/12/26 08:40:16;;;;;;;3.83;1.70;;;11.10;99.90;;;;;;5092009;28;20737;-70
2022/12/26 08:42:42;;;;;;;5.93;1.80;;;11.10;99.90;;;;;;5092644;28;20172;-69
2022/12/26 08:45:08;;;;;;;3.90;1.70;;;11.10;99.90;;;;;;5092566;28;20522;-70
2022/12/26 08:47:33;;;;;;;1.90;1.43;;;11.10;99.90;;;;;;5091702;28;20316;-70
2022/12/26 08:49:59;;;;;;;5.07;1.80;;;11.10;99.90;;;;;;5090994;28;20203;-70
2022/12/26 08:52:24;;;;;;;7.30;1.67;;;11.10;99.90;;;;;;5092335;28;20616;-70
2022/12/26 08:54:50;;;;;;;2.73;1.57;;;11.10;99.90;;;;;;5092651;28;20167;-68
2022/12/26 08:57:16;;;;;;;2.73;1.40;;;11.20;99.90;;;;;;5092045;28;20191;-71
2022/12/26 08:59:41;;;;;;;2.80;1.60;;;11.20;99.90;;;;;;5091380;28;20200;-70
2022/12/26 09:02:10;;;;;;;3.70;1.73;;;11.30;99.90;;;;;;5092861;28;20525;-72
2022/12/26 09:04:36;;;;;;;3.70;1.57;;;11.30;99.90;;;;;;5091292;28;20184;-71
2022/12/26 09:07:03;;;;;;;3.47;1.40;;;11.40;99.90;;;;;;5092805;28;20637;-71
2022/12/26 09:09:28;;;;;;;1.90;1.40;;;11.50;99.90;;;;;;5092711;28;20202;-72
2022/12/26 09:11:54;;;;;;;3.33;1.70;;;11.60;99.90;;;;;;5092128;28;20521;-71
2022/12/26 09:14:20;;;;;;;4.67;1.47;;;11.60;99.90;;;;;;5092799;28;20233;-71
2022/12/26 09:16:46;;;;;;;4.67;1.60;;;11.60;99.90;;;;;;5092762;28;20643;-72
2022/12/26 09:19:13;;;;;;;2.97;1.40;;;11.50;99.90;;;;;;5092031;28;20237;-70
2022/12/26 09:21:39;;;;;;;4.23;1.80;;;11.50;99.90;;;;;;5092870;28;20164;-70
2022/12/26 09:24:10;;;;;;;5.20;2.07;;;11.50;99.90;;;;;;5096771;28;20197;-71
2022/12/26 09:26:36;;;;;;;3.03;1.80;;;11.40;99.90;;;;;;5096716;28;20239;-71
2022/12/26 09:29:02;;;;;;;4.53;1.77;;;11.50;99.90;;;;;;5096225;28;20206;-72
2022/12/26 09:31:30;;;;;;;4.93;1.50;;;11.40;99.90;;;;;;5096255;28;20195;-71
2022/12/26 09:33:56;;;;;;;6.20;1.87;;;11.30;99.90;;;;;;5096256;28;20179;-71
2022/12/26 09:36:27;;;;;;;4.13;1.73;;;11.20;99.90;;;;;;5095787;28;20172;-71
2022/12/26 09:38:55;;;;;;;2.93;1.57;;;11.10;99.90;;;;;;5096214;28;20160;-71
2022/12/26 09:41:43;;;;;;;3.37;1.63;;;11.10;99.90;;;;;;5096473;28;20172;-71
2022/12/26 09:44:43;;;;;;;3.37;2.10;;;11.20;99.90;;;;;;5096444;28;20160;-71
2022/12/26 09:47:28;;;;;;;2.90;1.70;;;11.20;99.90;;;;;;5095806;28;20640;-71
2022/12/26 09:49:59;;;;;;;4.90;2.00;;;11.40;99.90;;;;;;5095869;28;20164;-71
2022/12/26 09:52:47;;;;;;;3.27;1.70;;;11.50;99.90;;;;;;5096330;28;20168;-70
2022/12/26 09:55:36;;;;;;;3.90;1.47;;;11.50;99.90;;;;;;5095681;28;20179;-70
2022/12/26 09:58:31;;;;;;;5.37;1.60;;;11.40;99.90;;;;;;5095662;28;20172;-70
2022/12/26 10:01:09;;;;;;;4.90;1.60;;;11.40;99.90;;;;;;5095808;28;20211;-70
2022/12/26 10:03:48;;;;;;;4.47;1.57;;;11.40;99.90;;;;;;5093682;28;20649;-70
2022/12/26 10:06:24;;;;;;;8.27;1.80;;;11.30;99.90;;;;;;5094424;28;20175;-70
2022/12/26 10:09:15;;;;;;;6.60;2.20;;;11.20;99.90;;;;;;5095249;28;20171;-70
2022/12/26 10:12:11;;;;;;;4.00;1.77;;;11.20;99.90;;;;;;5095218;28;20251;-69
2022/12/26 10:14:43;;;;;;;5.27;2.17;;;11.10;99.90;;;;;;5023566;28;20179;-69
2022/12/26 10:17:30;;;;;;;4.93;2.07;;;10.90;99.90;;;;;;5094949;28;20187;-70
2022/12/26 10:20:27;;;;;;;2.40;2.00;;;10.80;99.90;;;;;;5094564;28;20214;-70
2022/12/26 10:23:41;;;;;;;1.53;1.40;;;10.70;99.90;;;;;;5095546;28;20172;-70
2022/12/26 10:26:23;;;;;;;3.43;2.13;;;10.50;99.90;;;;;;5012618;28;20213;-69
2022/12/26 10:29:07;;;;;;;1.67;1.40;;;10.60;99.90;;;;;;4996793;28;20225;-69
2022/12/26 10:31:51;;;;;;;3.73;1.53;;;10.50;99.90;;;;;;5013198;28;20179;-69
2022/12/26 10:34:28;;;;;;;4.43;1.80;;;10.50;99.90;;;;;;5012658;28;20179;-69
2022/12/26 10:37:02;;;;;;;4.47;1.77;;;10.50;99.90;;;;;;5012662;28;20178;-70
2022/12/26 10:39:56;;;;;;;4.33;1.63;;;10.50;99.90;;;;;;5012605;28;20321;-69
2022/12/26 10:42:52;;;;;;;3.17;1.70;;;10.60;99.90;;;;;;5013052;28;20278;-69
2022/12/26 10:45:29;;;;;;;3.30;2.07;;;10.70;99.90;;;;;;5012703;28;20487;-71
2022/12/26 10:47:55;;;;;;;3.37;2.10;;;10.80;99.90;;;;;;5012605;28;20174;-71
2022/12/26 10:50:27;;;;;;;5.07;2.60;;;11.00;99.90;;;;;;5012854;28;20245;-71
2022/12/26 10:52:55;;;;;;;3.73;2.17;;;11.10;99.90;;;;;;4996687;28;20567;-71
2022/12/26 10:55:27;;;;;;;4.20;1.80;;;11.20;99.90;;;;;;5012719;28;20280;-71
2022/12/26 10:57:54;;;;;;;3.67;1.87;;;11.30;99.90;;;;;;5012252;28;20171;-70
2022/12/26 11:00:25;;;;;;;4.10;2.23;;;11.30;99.90;;;;;;5012714;28;20300;-70
2022/12/26 11:03:04;;;;;;;6.37;2.20;;;11.20;99.90;;;;;;5075317;28;20175;-70
2022/12/26 11:05:31;;;;;;;6.00;1.90;;;11.20;99.90;;;;;;5094329;28;20163;-71
2022/12/26 11:08:26;;;;;;;4.80;2.10;;;11.10;99.90;;;;;;5094004;28;20198;-70
2022/12/26 11:11:09;;;;;;;3.40;1.80;;;11.00;99.90;;;;;;5079857;28;20188;-70
2022/12/26 11:13:39;;;;;;;2.80;1.50;;;11.00;99.90;;;;;;5094385;28;20174;-71
2022/12/26 11:16:07;;;;;;;4.40;1.40;;;10.80;99.90;;;;;;5093572;28;20171;-70
2022/12/26 11:18:36;;;;;;;2.97;1.23;;;10.70;99.90;;;;;;5094477;28;20198;-71
2022/12/26 11:21:16;;;;;;;2.63;1.50;;;10.50;99.90;;;;;;5094269;28;20211;-72
2022/12/26 11:23:46;;;;;;;4.03;1.50;;;10.50;99.90;;;;;;5092769;28;20632;-70
2022/12/26 11:26:20;;;;;;;4.23;1.47;;;10.40;99.90;;;;;;5093826;28;20160;-70
2022/12/26 11:28:45;;;;;;;3.73;1.50;;;10.40;99.90;;;;;;5093857;28;20172;-71
2022/12/26 11:31:32;;;;;;;6.80;6.10;;;10.30;99.90;;;;;;5093276;28;20628;-70
2022/12/26 11:34:00;;;;;;;7.67;1.80;;;10.30;99.90;;;;;;5094150;28;20199;-71
2022/12/26 11:36:27;;;;;;;4.20;1.50;;;10.30;99.90;;;;;;5093787;28;20175;-71
2022/12/26 11:39:01;;;;;;;5.13;1.63;;;10.30;99.90;;;;;;5093399;28;20251;-70
2022/12/26 11:41:34;;;;;;;4.90;1.50;;;10.30;99.90;;;;;;5093811;28;20612;-70
2022/12/26 11:44:09;;;;;;;6.30;1.87;;;10.30;99.90;;;;;;5093214;28;20167;-70
2022/12/26 11:46:55;;;;;;;6.63;1.63;;;10.40;99.90;;;;;;5093501;28;20164;-71
2022/12/26 11:49:34;;;;;;;4.13;1.67;;;10.50;99.90;;;;;;5093635;28;20170;-71
2022/12/26 11:52:33;;;;;;;5.03;1.97;;;10.40;99.90;;;;;;5092562;28;20191;-70
2022/12/26 11:54:59;;;;;;;6.50;2.50;;;10.30;99.90;;;;;;5059979;28;20313;-71
2022/12/26 11:57:30;;;;;;;3.10;1.50;;;10.30;99.90;;;;;;5093274;28;20229;-71
2022/12/26 12:00:20;;;;;;;3.50;1.63;;;10.20;99.90;;;;;;5092640;28;20212;-72
2022/12/26 12:02:47;;;;;;;3.90;1.87;;;10.30;99.90;;;;;;5093316;28;20168;-72
2022/12/26 12:05:38;;;;;;;4.37;1.67;;;10.30;99.90;;;;;;5092721;28;20171;-72
2022/12/26 12:08:09;;;;;;;5.03;1.50;;;10.40;99.90;;;;;;5084076;28;20176;-71
2022/12/26 12:10:48;;;;;;;6.10;1.60;;;10.40;99.90;;;;;;5093017;28;20174;-71
2022/12/26 12:13:42;;;;;;;4.77;1.70;;;10.60;99.90;;;;;;5093418;28;20173;-71
2022/12/26 12:16:13;;;;;;;7.37;2.07;;;10.70;99.90;;;;;;5092575;28;20168;-71
2022/12/26 12:19:11;;;;;;;7.17;2.40;;;10.70;99.90;;;;;;5093152;28;20536;-71
2022/12/26 12:21:44;;;;;;;7.07;2.53;;;10.80;99.90;;;;;;5047455;28;20203;-70
2022/12/26 12:24:21;;;;;;;5.80;1.77;;;10.90;99.90;;;;;;5093240;28;20271;-71
2022/12/26 12:27:11;;;;;;;4.07;1.70;;;10.90;99.90;;;;;;5092370;28;20265;-71
2022/12/26 12:30:08;;;;;;;8.30;1.77;;;10.70;99.90;;;;;;5092781;28;20179;-71
2022/12/26 12:32:57;;;;;;;8.90;2.10;;;10.50;99.90;;;;;;5092707;28;20187;-71
2022/12/26 12:35:55;;;;;;;4.97;1.93;;;10.50;99.90;;;;;;5092807;28;20172;-71
2022/12/26 12:38:45;;;;;;;16.37;2.73;;;10.30;99.90;;;;;;5092289;28;20164;-71
2022/12/26 12:41:29;;;;;;;5.33;2.10;;;10.20;99.90;;;;;;5092647;28;20245;-71
2022/12/26 12:44:03;;;;;;;9.70;2.20;;;10.20;99.90;;;;;;5091164;28;20183;-71
2022/12/26 12:47:02;;;;;;;7.97;2.10;;;10.20;99.90;;;;;;5092522;28;20171;-71
2022/12/26 12:49:39;;;;;;;9.23;2.27;;;10.20;99.90;;;;;;5091027;28;20527;-72
2022/12/26 12:52:50;;;;;;;6.97;2.20;;;10.20;99.90;;;;;;5092536;28;20167;-72
2022/12/26 12:55:52;;;;;;;10.43;2.30;;;10.20;99.90;;;;;;5092934;28;20213;-72
2022/12/26 12:58:26;;;;;;;6.13;2.20;;;10.20;99.90;;;;;;5095004;28;20257;-70
2022/12/26 13:01:06;;;;;;;6.87;2.20;;;10.20;99.90;;;;;;5096876;28;20215;-71
2022/12/26 13:03:36;;;;;;;7.63;2.03;;;10.20;99.90;;;;;;5096743;28;20191;-70
2022/12/26 13:06:09;;;;;;;11.17;2.03;;;10.20;99.90;;;;;;5096856;28;20232;-70
2022/12/26 13:08:52;;;;;;;6.07;2.23;;;10.20;99.90;;;;;;5096523;28;20256;-71
2022/12/26 13:11:37;;;;;;;3.60;1.80;;;10.20;99.90;;;;;;5096539;28;20183;-71
2022/12/26 13:14:13;;;;;;;2.87;1.50;;;10.20;99.90;;;;;;5096313;28;20166;-71
2022/12/26 13:16:44;;;;;;;4.23;2.00;;;10.20;99.90;;;;;;5096737;28;20164;-70
2022/12/26 13:19:33;;;;;;;7.13;2.37;;;10.20;99.90;;;;;;5096179;28;20255;-71
2022/12/26 13:22:08;;;;;;;7.10;2.37;;;10.00;99.90;;;;;;5096302;28;20688;-71
2022/12/26 13:24:39;;;;;;;8.47;2.20;;;10.00;99.90;;;;;;5096110;28;20236;-71
2022/12/26 13:27:08;;;;;;;8.53;2.07;;;9.80;99.90;;;;;;5095683;28;20243;-71
2022/12/26 13:29:45;;;;;;;7.47;2.80;;;9.90;99.90;;;;;;5096101;28;20174;-71
2022/12/26 13:32:29;;;;;;;7.53;2.33;;;9.90;99.90;;;;;;5096024;28;20225;-70
2022/12/26 13:35:00;;;;;;;6.57;2.30;;;9.90;99.90;;;;;;5096551;28;20168;-71
2022/12/26 13:37:38;;;;;;;10.33;2.37;;;9.80;99.90;;;;;;5095948;28;20175;-71
2022/12/26 13:40:09;;;;;;;9.47;2.93;;;9.70;99.90;;;;;;5095259;28;20227;-71
2022/12/26 13:45:47;;;;;;;7.20;2.30;;;9.60;99.90;;;;;;5096346;28;20175;-71
2022/12/26 13:48:15;;;;;;;7.80;2.57;;;9.50;99.90;;;;;;5094854;28;20203;-72
2022/12/26 13:50:49;;;;;;;10.27;2.20;;;9.50;99.90;;;;;;5095200;28;20241;-71
2022/12/26 13:53:26;;;;;;;9.60;2.93;;;9.50;99.90;;;;;;5095592;28;20176;-71
2022/12/26 13:56:03;;;;;;;7.90;2.10;;;9.40;99.90;;;;;;5095175;28;20616;-72
2022/12/26 13:58:36;;;;;;;7.47;2.80;;;9.40;99.90;;;;;;5095597;28;20176;-72
2022/12/26 14:01:06;;;;;;;10.07;2.10;;;9.40;99.90;;;;;;5095645;28;20818;-71
2022/12/26 14:03:43;;;;;;;12.27;2.63;;;9.30;99.90;;;;;;5095619;28;20663;-71
2022/12/26 14:06:26;;;;;;;7.60;3.10;;;9.30;99.90;;;;;;5095772;28;20194;-72
2022/12/26 14:09:30;;;;;;;6.47;2.70;;;9.20;99.90;;;;;;5094685;28;20171;-72
2022/12/26 14:12:08;;;;;;;6.23;2.20;;;9.10;99.90;;;;;;5094787;28;20607;-71
2022/12/26 14:15:25;;;;;;;9.10;2.30;;;9.00;99.90;;;;;;5095119;28;20201;-71
2022/12/26 14:18:18;;;;;;;9.70;2.80;;;9.00;99.90;;;;;;5095049;28;20199;-71
2022/12/26 14:20:55;;;;;;;11.83;4.40;;;8.90;99.90;;;;;;5094992;28;20207;-71
2022/12/26 14:23:26;;;;;;;19.10;7.50;;;8.90;99.90;;;;;;5093750;28;20369;-72
2022/12/26 14:26:02;;;;;;;9.63;2.70;;;8.80;99.90;;;;;;5094363;28;20179;-71
2022/12/26 14:28:48;;;;;;;8.23;2.43;;;8.90;99.90;;;;;;5095066;28;20589;-70
2022/12/26 14:31:47;;;;;;;8.20;2.90;;;8.80;99.90;;;;;;5094988;28;20229;-72
2022/12/26 14:34:46;;;;;;;11.73;2.90;;;8.80;99.90;;;;;;5095171;28;20171;-70
2022/12/26 14:37:42;;;;;;;11.47;2.40;;;8.90;99.90;;;;;;5012633;28;20186;-70
2022/12/26 14:40:26;;;;;;;4.80;2.00;;;8.90;99.90;;;;;;5012276;28;20226;-71
2022/12/26 14:43:10;;;;;;;5.17;2.07;;;8.90;99.90;;;;;;5012749;28;20247;-70
2022/12/26 14:45:36;;;;;;;8.80;1.97;;;8.80;99.90;;;;;;4995996;28;20190;-69
2022/12/26 14:48:22;;;;;;;5.50;1.90;;;8.70;99.90;;;;;;5011919;28;20654;-71
2022/12/26 14:50:54;;;;;;;7.40;2.53;;;8.60;99.90;;;;;;4999443;28;20185;-70
2022/12/26 14:53:28;;;;;;;6.07;1.93;;;8.60;99.90;;;;;;4995785;28;20650;-71
2022/12/26 14:56:00;;;;;;;5.83;1.70;;;8.40;99.90;;;;;;5011463;28;20634;-72
2022/12/26 14:58:34;;;;;;;9.07;2.20;;;8.40;99.90;;;;;;5011960;28;20302;-71
2022/12/26 15:01:12;;;;;;;6.70;2.10;;;8.20;99.90;;;;;;5012391;28;20214;-71
2022/12/26 15:03:58;;;;;;;6.87;1.83;;;8.00;99.90;;;;;;5011877;28;20265;-71
2022/12/26 15:06:42;;;;;;;7.47;1.93;;;7.70;99.90;;;;;;5012466;28;20174;-70
2022/12/26 15:09:42;;;;;;;4.23;1.57;;;7.70;99.90;;;;;;5011441;28;20178;-72
2022/12/26 15:12:46;;;;;;;8.87;2.73;;;7.60;99.90;;;;;;4995856;28;20756;-71
2022/12/26 15:15:35;;;;;;;8.57;1.97;;;7.50;99.90;;;;;;5031728;28;20177;-71
2022/12/26 15:18:18;;;;;;;6.07;1.47;;;7.30;99.90;;;;;;5031897;28;20178;-71
2022/12/26 15:21:00;;;;;;;6.47;2.00;;;7.30;99.90;;;;;;5030351;28;20319;-71
2022/12/26 15:23:40;;;;;;;7.17;2.77;;;7.30;99.90;;;;;;5031296;28;20247;-71
2022/12/26 15:26:40;;;;;;;5.50;1.60;;;7.30;99.90;;;;;;5031424;28;20559;-70